Time;durP1;ratioP1;P1;durP2;ratioP2;P2;SDS_P1;SDS_P2;PMS_P1;PMS_P2;Temp;Humidity;BMP_temperature;BMP_pressure;BME280_temperature;BME280_humidity;BME280_pressure;Samples;Min_cycle;Max_cycle;Signal;HPM_P1;HPM_P2
2021/07/04 00:01:16;;;;;;;5.40;3.30;;;21.60;99.90;;;;;;5091516;28;20201;-72
2021/07/04 00:03:43;;;;;;;3.53;3.22;;;21.60;99.90;;;;;;5091151;28;20258;-72
2021/07/04 00:06:11;;;;;;;3.65;3.35;;;21.60;99.90;;;;;;5091909;28;20206;-72
2021/07/04 00:08:38;;;;;;;3.70;3.40;;;21.60;99.90;;;;;;5091585;28;20250;-72
2021/07/04 00:11:08;;;;;;;5.78;3.53;;;21.60;99.90;;;;;;5091831;28;20668;-72
2021/07/04 00:13:36;;;;;;;4.78;3.45;;;21.60;99.90;;;;;;5091467;28;20236;-73
2021/07/04 00:16:07;;;;;;;6.97;3.38;;;21.60;99.90;;;;;;5089492;28;20720;-72
2021/07/04 00:18:35;;;;;;;3.55;3.25;;;21.60;99.90;;;;;;5091247;28;20205;-75
2021/07/04 00:21:07;;;;;;;3.20;3.00;;;21.70;99.90;;;;;;5091073;28;20251;-71
2021/07/04 00:23:35;;;;;;;4.47;4.07;;;21.70;99.90;;;;;;5091276;28;20212;-72
2021/07/04 00:26:03;;;;;;;4.68;4.28;;;21.70;99.90;;;;;;5090676;28;20255;-72
2021/07/04 00:28:30;;;;;;;3.53;3.22;;;21.50;99.90;;;;;;5091288;28;20256;-76
2021/07/04 00:30:57;;;;;;;4.75;4.35;;;21.50;99.90;;;;;;5089971;28;20258;-71
2021/07/04 00:33:24;;;;;;;5.63;4.45;;;21.50;99.90;;;;;;5090530;28;20246;-75
2021/07/04 00:35:51;;;;;;;6.15;4.70;;;21.50;99.90;;;;;;5090650;28;20237;-70
2021/07/04 00:38:19;;;;;;;6.28;4.88;;;21.50;99.90;;;;;;5090880;28;20258;-71
2021/07/04 00:40:47;;;;;;;4.93;4.50;;;21.40;99.90;;;;;;5090773;28;20202;-71
2021/07/04 00:43:16;;;;;;;4.53;4.13;;;21.30;99.90;;;;;;5090946;28;20210;-71
2021/07/04 00:45:43;;;;;;;5.07;4.57;;;21.10;99.90;;;;;;5091108;28;20197;-71
2021/07/04 00:48:10;;;;;;;5.28;4.32;;;21.00;99.90;;;;;;5090783;28;20209;-71
2021/07/04 00:50:37;;;;;;;5.03;4.53;;;21.00;99.90;;;;;;5091143;28;20201;-71
2021/07/04 00:53:05;;;;;;;6.65;4.60;;;21.10;99.90;;;;;;5090783;28;20201;-73
2021/07/04 00:55:33;;;;;;;4.68;4.28;;;21.10;99.90;;;;;;5090681;28;20701;-72
2021/07/04 00:58:02;;;;;;;4.30;3.90;;;21.00;99.90;;;;;;5090692;28;20558;-71
2021/07/04 01:00:32;;;;;;;4.57;4.13;;;21.00;99.90;;;;;;5090895;28;20980;-89
2021/07/04 01:02:59;;;;;;;5.40;4.90;;;21.10;99.90;;;;;;5091008;28;20201;-88
2021/07/04 01:05:29;;;;;;;6.18;5.25;;;21.10;99.90;;;;;;5090350;28;20291;-87
2021/07/04 01:07:56;;;;;;;4.47;4.03;;;21.00;99.90;;;;;;5090726;28;20205;-71
2021/07/04 01:10:25;;;;;;;5.43;4.72;;;20.90;99.90;;;;;;5090657;28;20213;-76
2021/07/04 01:12:54;;;;;;;5.55;5.00;;;20.90;99.90;;;;;;5090773;28;20243;-71
2021/07/04 01:15:25;;;;;;;5.13;4.72;;;20.90;99.90;;;;;;5089968;28;20232;-68
2021/07/04 01:17:54;;;;;;;5.60;5.10;;;20.80;99.90;;;;;;5088125;28;20623;-81
2021/07/04 01:20:22;;;;;;;6.60;4.75;;;20.80;99.90;;;;;;5089004;28;20215;-85
2021/07/04 01:22:59;;;;;;;5.90;5.10;;;20.80;99.90;;;;;;5089972;28;20197;-70
2021/07/04 01:25:27;;;;;;;5.18;4.68;;;20.70;99.90;;;;;;5090255;28;20695;-70
2021/07/04 01:27:54;;;;;;;5.05;4.65;;;20.70;99.90;;;;;;5089644;28;20214;-70
2021/07/04 01:30:22;;;;;;;6.13;5.20;;;20.70;99.90;;;;;;5090371;28;20644;-70
2021/07/04 01:32:50;;;;;;;5.15;4.40;;;20.70;99.90;;;;;;5089778;28;20205;-71
2021/07/04 01:35:17;;;;;;;8.40;5.15;;;20.80;99.90;;;;;;5090168;28;20206;-69
2021/07/04 01:37:45;;;;;;;5.85;5.38;;;20.70;99.90;;;;;;5089748;28;20684;-69
2021/07/04 01:40:14;;;;;;;8.27;5.70;;;20.80;99.90;;;;;;5090367;28;20749;-68
2021/07/04 01:42:43;;;;;;;5.93;5.43;;;20.70;99.90;;;;;;5089420;28;20685;-69
2021/07/04 01:45:13;;;;;;;7.18;6.50;;;20.70;99.90;;;;;;5090766;28;20661;-69
2021/07/04 01:47:41;;;;;;;7.13;5.95;;;20.60;99.90;;;;;;5090287;28;20212;-71
2021/07/04 01:50:11;;;;;;;7.40;6.80;;;20.60;99.90;;;;;;5090037;28;20209;-70
2021/07/04 01:52:39;;;;;;;6.78;6.18;;;20.70;99.90;;;;;;5090922;28;20642;-70
2021/07/04 01:55:08;;;;;;;6.97;6.38;;;20.80;99.90;;;;;;5090191;28;20210;-80
2021/07/04 01:57:37;;;;;;;7.80;6.68;;;20.70;99.90;;;;;;5089517;28;20259;-72
2021/07/04 02:00:09;;;;;;;6.72;5.72;;;20.60;99.90;;;;;;5089540;28;20668;-72
2021/07/04 02:02:36;;;;;;;6.25;5.57;;;20.80;99.90;;;;;;5093910;28;20213;-72
2021/07/04 02:05:04;;;;;;;6.47;5.72;;;20.80;99.90;;;;;;5093855;28;20624;-85
2021/07/04 02:07:31;;;;;;;8.05;7.05;;;20.70;99.90;;;;;;5094422;28;20273;-72
2021/07/04 02:09:58;;;;;;;6.85;5.35;;;20.80;99.90;;;;;;5093869;28;20250;-72
2021/07/04 02:12:25;;;;;;;8.23;5.82;;;20.80;99.90;;;;;;5094145;28;20213;-85
2021/07/04 02:14:53;;;;;;;7.07;6.25;;;20.90;99.90;;;;;;5093687;28;20290;-74
2021/07/04 02:17:20;;;;;;;6.70;6.15;;;20.90;99.90;;;;;;5093455;28;20700;-74
2021/07/04 02:19:47;;;;;;;5.75;5.18;;;20.80;99.90;;;;;;5093702;28;20210;-74
2021/07/04 02:22:14;;;;;;;6.68;6.07;;;20.70;99.90;;;;;;5093382;28;20197;-73
2021/07/04 02:24:41;;;;;;;8.82;7.35;;;20.60;99.90;;;;;;5093145;28;20259;-71
2021/07/04 02:27:10;;;;;;;8.52;7.35;;;20.60;99.90;;;;;;5093702;28;20201;-71
2021/07/04 02:29:38;;;;;;;7.95;7.15;;;20.70;99.90;;;;;;5093423;28;20296;-71
2021/07/04 02:32:07;;;;;;;10.23;8.18;;;20.70;99.90;;;;;;5091811;28;20205;-72
2021/07/04 02:34:34;;;;;;;11.38;9.13;;;20.70;99.90;;;;;;5093032;28;20210;-71
2021/07/04 02:37:01;;;;;;;9.82;7.82;;;20.70;99.90;;;;;;5093024;28;20294;-71
2021/07/04 02:39:28;;;;;;;9.88;8.23;;;20.70;99.90;;;;;;5093236;28;20209;-77
2021/07/04 02:41:55;;;;;;;8.77;7.97;;;20.60;99.90;;;;;;5092303;28;20205;-73
2021/07/04 02:44:22;;;;;;;8.05;7.25;;;20.50;99.90;;;;;;5093018;28;20251;-76
2021/07/04 02:46:49;;;;;;;11.90;8.15;;;20.70;99.90;;;;;;5078818;28;20209;-74
2021/07/04 02:49:18;;;;;;;7.68;6.97;;;20.70;99.90;;;;;;5093456;28;20292;-73
2021/07/04 02:51:45;;;;;;;7.40;6.53;;;20.70;99.90;;;;;;5092584;28;20233;-74
2021/07/04 02:54:13;;;;;;;6.50;5.90;;;20.70;99.90;;;;;;5093163;28;20300;-73
2021/07/04 02:56:40;;;;;;;5.22;4.82;;;20.50;99.90;;;;;;5092250;28;20241;-77
2021/07/04 02:59:08;;;;;;;7.25;5.38;;;20.40;99.90;;;;;;5093324;28;20209;-74
2021/07/04 03:01:35;;;;;;;5.50;5.00;;;20.40;99.90;;;;;;5092928;28;20293;-74
2021/07/04 03:04:02;;;;;;;5.38;4.63;;;20.30;99.90;;;;;;5092671;28;20205;-74
2021/07/04 03:06:30;;;;;;;5.60;5.10;;;20.30;99.90;;;;;;5092920;28;20259;-74
2021/07/04 03:08:57;;;;;;;6.82;4.95;;;20.20;99.90;;;;;;5092263;28;20722;-76
2021/07/04 03:11:24;;;;;;;4.93;4.53;;;20.20;99.90;;;;;;5092263;28;20721;-74
2021/07/04 03:13:51;;;;;;;5.00;4.53;;;20.10;99.90;;;;;;5091798;28;20255;-78
2021/07/04 03:16:18;;;;;;;6.30;5.15;;;20.10;99.90;;;;;;5092555;28;20221;-75
2021/07/04 03:18:45;;;;;;;5.38;4.97;;;20.20;99.90;;;;;;5092057;28;20255;-75
2021/07/04 03:21:12;;;;;;;5.00;4.50;;;20.30;99.90;;;;;;5092353;28;20672;-74
2021/07/04 03:23:40;;;;;;;6.22;5.65;;;20.40;99.90;;;;;;5092680;28;20205;-74
2021/07/04 03:26:07;;;;;;;4.78;4.38;;;20.40;99.90;;;;;;5092595;28;20202;-79
2021/07/04 03:28:34;;;;;;;5.72;5.10;;;20.50;99.90;;;;;;5092940;28;20206;-73
2021/07/04 03:31:01;;;;;;;5.25;4.75;;;20.40;99.90;;;;;;5091626;28;20267;-74
2021/07/04 03:33:29;;;;;;;5.38;4.95;;;20.30;99.90;;;;;;5092074;28;20741;-80
2021/07/04 03:35:56;;;;;;;5.10;4.50;;;20.30;99.90;;;;;;5091819;28;20209;-77
2021/07/04 03:38:23;;;;;;;5.20;4.55;;;20.30;99.90;;;;;;5092244;28;20209;-73
2021/07/04 03:40:51;;;;;;;3.95;3.63;;;20.30;99.90;;;;;;5091616;28;20201;-78
2021/07/04 03:43:18;;;;;;;4.25;3.95;;;20.20;99.90;;;;;;5092070;28;20205;-73
2021/07/04 03:45:46;;;;;;;5.72;4.30;;;20.20;99.90;;;;;;5091757;28;20201;-73
2021/07/04 03:48:13;;;;;;;4.60;4.20;;;20.20;99.90;;;;;;5091672;28;20665;-73
2021/07/04 03:50:40;;;;;;;5.68;5.15;;;20.20;99.90;;;;;;5091609;28;20258;-73
2021/07/04 03:53:07;;;;;;;4.15;3.75;;;20.30;99.90;;;;;;5092183;28;20254;-74
2021/07/04 03:55:34;;;;;;;4.35;4.00;;;20.20;99.90;;;;;;5091542;28;20254;-73
2021/07/04 03:58:03;;;;;;;5.22;4.72;;;20.10;99.90;;;;;;5091422;28;20289;-77
2021/07/04 04:00:30;;;;;;;5.75;4.15;;;20.20;99.90;;;;;;5091842;28;20211;-78
2021/07/04 04:02:57;;;;;;;5.28;4.78;;;20.30;99.90;;;;;;5091335;28;20677;-78
2021/07/04 04:05:24;;;;;;;4.05;3.75;;;20.20;99.90;;;;;;5091584;28;20205;-73
2021/07/04 04:07:51;;;;;;;4.88;4.38;;;20.10;99.90;;;;;;5091525;28;20262;-73
2021/07/04 04:10:18;;;;;;;5.72;5.18;;;20.20;99.90;;;;;;5091560;28;20266;-73
2021/07/04 04:12:45;;;;;;;4.55;4.15;;;20.20;99.90;;;;;;5091319;28;20290;-74
2021/07/04 04:15:14;;;;;;;5.03;4.53;;;20.20;99.90;;;;;;5091002;28;20217;-77
2021/07/04 04:17:42;;;;;;;5.38;4.05;;;20.10;99.90;;;;;;5091203;28;20225;-76
2021/07/04 04:22:51;;;;;;;5.15;4.40;;;20.20;99.90;;;;;;5068334;28;20206;-75
2021/07/04 04:25:18;;;;;;;4.70;4.30;;;20.20;99.90;;;;;;5068493;28;20202;-74
2021/07/04 04:27:45;;;;;;;6.88;5.72;;;20.20;99.90;;;;;;5068088;28;20202;-73
2021/07/04 04:30:15;;;;;;;5.90;5.30;;;20.10;99.90;;;;;;5086881;28;20213;-73
2021/07/04 04:32:42;;;;;;;5.97;5.45;;;20.10;99.90;;;;;;5090815;28;20213;-73
2021/07/04 04:35:10;;;;;;;4.38;3.90;;;20.10;99.90;;;;;;5091810;28;20210;-74
2021/07/04 04:37:38;;;;;;;4.55;4.15;;;20.10;99.90;;;;;;5091394;28;20228;-74
2021/07/04 04:40:07;;;;;;;3.97;3.67;;;20.00;99.90;;;;;;5091403;28;20209;-82
2021/07/04 04:42:35;;;;;;;3.67;3.42;;;20.00;99.90;;;;;;5090857;28;20205;-74
2021/07/04 04:45:02;;;;;;;3.90;3.53;;;20.00;99.90;;;;;;5090190;28;20244;-78
2021/07/04 04:47:30;;;;;;;4.13;3.63;;;20.00;99.90;;;;;;5091196;28;20259;-75
2021/07/04 04:49:58;;;;;;;5.90;3.28;;;20.10;99.90;;;;;;5090270;28;20250;-74
2021/07/04 04:52:25;;;;;;;3.58;3.28;;;20.00;99.90;;;;;;5090711;28;20201;-74
2021/07/04 04:54:52;;;;;;;3.75;3.45;;;19.90;99.90;;;;;;5090399;28;20201;-74
2021/07/04 04:57:19;;;;;;;4.10;3.08;;;19.90;99.90;;;;;;5090658;28;20221;-74
2021/07/04 04:59:46;;;;;;;3.83;3.42;;;20.00;99.90;;;;;;5089779;28;20263;-77
2021/07/04 05:02:13;;;;;;;3.65;3.35;;;20.00;99.90;;;;;;5090812;28;20213;-72
2021/07/04 05:04:41;;;;;;;2.40;2.20;;;20.00;99.90;;;;;;5091027;28;20274;-74
2021/07/04 05:07:09;;;;;;;2.70;2.50;;;19.90;99.90;;;;;;5090923;28;20262;-74
2021/07/04 05:09:36;;;;;;;2.78;2.58;;;19.90;99.90;;;;;;5091074;28;20616;-77
2021/07/04 05:12:04;;;;;;;2.53;2.33;;;19.90;99.90;;;;;;5089284;28;20216;-76
2021/07/04 05:14:31;;;;;;;3.17;2.97;;;19.90;99.90;;;;;;5089777;28;20290;-76
2021/07/04 05:16:58;;;;;;;4.88;3.13;;;19.80;99.90;;;;;;5089008;28;20724;-77
2021/07/04 05:19:25;;;;;;;4.53;4.05;;;19.80;99.90;;;;;;5090313;28;20201;-76
2021/07/04 05:21:53;;;;;;;1.85;1.75;;;19.90;99.90;;;;;;5089099;28;20664;-75
2021/07/04 05:24:20;;;;;;;1.80;1.70;;;20.00;99.90;;;;;;5089514;28;20201;-77
2021/07/04 05:26:47;;;;;;;1.98;1.88;;;19.80;99.90;;;;;;5088787;28;20262;-75
2021/07/04 05:29:14;;;;;;;2.05;1.80;;;19.90;99.90;;;;;;5089651;28;20209;-75
2021/07/04 05:31:41;;;;;;;2.80;2.50;;;19.90;99.90;;;;;;5089748;28;20274;-75
2021/07/04 05:34:08;;;;;;;2.92;2.72;;;19.90;99.90;;;;;;5090160;28;20197;-76
2021/07/04 05:36:35;;;;;;;3.00;2.38;;;19.90;99.90;;;;;;5091355;28;20224;-76
2021/07/04 05:39:04;;;;;;;2.25;2.05;;;19.90;99.90;;;;;;5093666;28;20212;-76
2021/07/04 05:41:31;;;;;;;2.67;2.47;;;19.80;99.90;;;;;;5092856;28;20685;-77
2021/07/04 05:43:58;;;;;;;2.40;2.20;;;19.70;99.90;;;;;;5093668;28;20209;-76
2021/07/04 05:46:25;;;;;;;3.78;2.67;;;19.70;99.90;;;;;;5093382;28;20262;-75
2021/07/04 05:48:52;;;;;;;4.10;2.50;;;19.70;99.90;;;;;;5093147;28;20197;-76
2021/07/04 05:51:19;;;;;;;2.67;2.47;;;19.70;99.90;;;;;;5093444;28;20206;-76
2021/07/04 05:53:46;;;;;;;2.60;2.40;;;19.70;99.90;;;;;;5092938;28;20206;-78
2021/07/04 05:56:14;;;;;;;3.22;3.03;;;19.60;99.90;;;;;;5093549;28;20206;-76
2021/07/04 05:58:41;;;;;;;3.30;3.00;;;19.60;99.90;;;;;;5092603;28;20229;-77
2021/07/04 06:01:08;;;;;;;3.20;3.00;;;19.50;99.90;;;;;;5093760;28;20205;-76
2021/07/04 06:03:35;;;;;;;3.35;3.05;;;19.40;99.90;;;;;;5093277;28;20201;-77
2021/07/04 06:06:02;;;;;;;4.95;4.55;;;19.40;99.90;;;;;;5093006;28;20205;-77
2021/07/04 06:08:29;;;;;;;6.47;5.93;;;19.40;99.90;;;;;;5093450;28;20209;-77
2021/07/04 06:10:56;;;;;;;6.32;5.82;;;19.30;99.90;;;;;;5092663;28;20227;-83
2021/07/04 06:13:24;;;;;;;8.38;7.03;;;19.30;99.90;;;;;;5093221;28;20201;-77
2021/07/04 06:15:51;;;;;;;7.25;6.13;;;19.30;99.90;;;;;;5092547;28;20278;-78
2021/07/04 06:18:18;;;;;;;8.90;7.07;;;19.30;99.90;;;;;;5093212;28;20229;-76
2021/07/04 06:20:45;;;;;;;7.53;6.82;;;19.30;99.90;;;;;;5092468;28;20267;-77
2021/07/04 06:23:12;;;;;;;7.20;6.60;;;19.40;99.90;;;;;;5092367;28;20672;-75
2021/07/04 06:25:40;;;;;;;7.20;6.50;;;19.30;99.90;;;;;;5093100;28;20209;-76
2021/07/04 06:28:07;;;;;;;7.68;6.78;;;19.20;99.90;;;;;;5091656;28;20206;-75
2021/07/04 06:30:36;;;;;;;9.32;7.18;;;19.20;99.90;;;;;;5093268;28;20216;-76
2021/07/04 06:33:03;;;;;;;6.82;6.20;;;19.20;99.90;;;;;;5091833;28;20201;-77
2021/07/04 06:35:30;;;;;;;7.35;6.65;;;19.10;99.90;;;;;;5085013;28;20626;-74
2021/07/04 06:37:57;;;;;;;7.57;6.85;;;19.10;99.90;;;;;;5091719;28;20658;-76
2021/07/04 06:40:24;;;;;;;6.72;6.10;;;19.10;99.90;;;;;;5092447;28;20254;-76
2021/07/04 06:42:51;;;;;;;6.28;5.68;;;19.10;99.90;;;;;;5092221;28;20664;-76
2021/07/04 06:45:18;;;;;;;7.75;6.53;;;19.10;99.90;;;;;;5091595;28;20734;-73
2021/07/04 06:47:49;;;;;;;7.18;6.47;;;19.10;99.90;;;;;;5091537;28;20251;-76
2021/07/04 06:50:18;;;;;;;8.75;7.38;;;19.10;99.90;;;;;;5089431;28;20259;-74
2021/07/04 06:52:46;;;;;;;6.95;5.85;;;19.10;99.90;;;;;;5091904;28;20201;-73
2021/07/04 06:55:13;;;;;;;7.78;6.97;;;19.10;99.90;;;;;;5092222;28;20262;-75
2021/07/04 06:57:41;;;;;;;6.28;5.65;;;19.10;99.90;;;;;;5091941;28;20233;-75
2021/07/04 07:00:10;;;;;;;8.43;6.15;;;19.10;99.90;;;;;;5092422;28;20661;-78
2021/07/04 07:02:37;;;;;;;6.97;6.35;;;19.10;99.90;;;;;;5092272;28;20202;-74
2021/07/04 07:05:07;;;;;;;7.65;5.78;;;19.10;99.90;;;;;;5091539;28;20426;-73
2021/07/04 07:07:35;;;;;;;6.28;5.75;;;19.20;99.90;;;;;;5089259;28;20362;-77
2021/07/04 07:10:02;;;;;;;8.35;5.80;;;19.10;99.90;;;;;;5086929;28;20202;-79
2021/07/04 07:12:30;;;;;;;7.07;6.47;;;19.10;99.90;;;;;;5092540;28;20202;-79
2021/07/04 07:14:57;;;;;;;6.68;6.10;;;19.10;99.90;;;;;;5091345;28;20575;-73
2021/07/04 07:17:25;;;;;;;7.32;6.72;;;19.10;99.90;;;;;;5091602;28;20286;-79
2021/07/04 07:19:53;;;;;;;7.43;6.35;;;19.10;99.90;;;;;;5091041;28;20591;-78
2021/07/04 07:22:22;;;;;;;9.20;6.57;;;19.20;99.90;;;;;;5091563;28;20205;-77
2021/07/04 07:26:21;;;;;;;6.30;5.75;;;19.10;99.90;;;;;;5096244;27;20608;-84
2021/07/04 07:28:48;;;;;;;6.38;5.28;;;19.20;99.90;;;;;;5086843;28;20209;-76
2021/07/04 07:31:15;;;;;;;6.47;5.60;;;19.10;99.90;;;;;;5106353;28;20208;-75
2021/07/04 07:33:42;;;;;;;6.07;5.47;;;19.10;99.90;;;;;;5099257;28;20258;-75
2021/07/04 07:36:09;;;;;;;6.25;5.65;;;19.10;99.90;;;;;;5105477;28;20208;-75
2021/07/04 07:38:36;;;;;;;5.63;5.13;;;19.20;99.90;;;;;;5102631;28;20252;-76
2021/07/04 07:41:03;;;;;;;6.70;5.10;;;19.40;99.90;;;;;;5102220;28;20216;-76
2021/07/04 07:43:32;;;;;;;7.25;5.32;;;19.80;99.90;;;;;;5108346;28;20216;-76
2021/07/04 07:45:59;;;;;;;8.95;6.90;;;20.50;99.90;;;;;;5107627;28;20281;-73
2021/07/04 07:48:26;;;;;;;5.70;5.10;;;21.30;99.90;;;;;;5107907;28;20273;-77
2021/07/04 07:50:53;;;;;;;5.03;4.47;;;22.00;99.90;;;;;;5107717;28;20270;-75
2021/07/04 07:53:20;;;;;;;5.47;4.97;;;22.60;99.90;;;;;;5107931;28;20655;-74
2021/07/04 07:55:49;;;;;;;6.88;4.82;;;22.00;99.90;;;;;;5107621;28;20660;-76
2021/07/04 07:58:16;;;;;;;4.53;4.13;;;21.30;99.90;;;;;;5096864;28;20252;-79
2021/07/04 08:00:44;;;;;;;4.85;4.13;;;21.20;99.90;;;;;;5100221;28;20205;-74
2021/07/04 08:03:14;;;;;;;5.65;5.00;;;21.60;99.90;;;;;;5088379;28;20560;-75
2021/07/04 08:05:41;;;;;;;5.50;4.10;;;21.50;99.90;;;;;;5107258;28;20232;-74
2021/07/04 08:08:08;;;;;;;4.95;4.07;;;21.40;99.90;;;;;;5094718;28;20213;-81
2021/07/04 08:10:36;;;;;;;3.53;3.22;;;21.10;99.90;;;;;;5086979;28;20213;-82
2021/07/04 08:13:04;;;;;;;4.07;3.70;;;20.60;99.90;;;;;;5086143;28;20259;-77
2021/07/04 08:15:31;;;;;;;3.65;3.30;;;20.30;99.90;;;;;;5086714;28;20638;-78
2021/07/04 08:18:00;;;;;;;4.65;4.25;;;20.00;99.90;;;;;;5086840;28;20206;-79
2021/07/04 08:20:27;;;;;;;3.95;3.65;;;20.00;99.90;;;;;;5086701;28;20264;-81
2021/07/04 08:22:54;;;;;;;4.20;3.80;;;20.10;99.90;;;;;;5086888;28;20198;-86
2021/07/04 08:25:21;;;;;;;3.92;3.15;;;20.00;99.90;;;;;;5098231;28;20229;-82
2021/07/04 08:27:48;;;;;;;3.65;2.72;;;20.00;99.90;;;;;;5106525;28;20254;-83
2021/07/04 08:30:16;;;;;;;4.38;3.75;;;19.90;99.90;;;;;;5097584;28;20267;-80
2021/07/04 08:32:43;;;;;;;4.75;3.47;;;19.80;99.90;;;;;;5099876;28;20198;-77
2021/07/04 08:35:13;;;;;;;5.45;4.93;;;20.00;99.90;;;;;;5107100;28;20209;-78
2021/07/04 08:37:40;;;;;;;3.70;3.38;;;20.00;99.90;;;;;;5093291;28;20212;-77
2021/07/04 08:40:09;;;;;;;4.07;3.45;;;19.90;99.90;;;;;;5094084;28;20270;-80
2021/07/04 08:42:36;;;;;;;3.90;3.60;;;19.80;99.90;;;;;;5087228;28;20255;-81
2021/07/04 08:45:05;;;;;;;4.25;3.42;;;19.90;99.90;;;;;;5092725;28;20229;-80
2021/07/04 08:47:32;;;;;;;7.70;3.67;;;20.00;99.90;;;;;;5093316;28;20562;-80
2021/07/04 08:49:59;;;;;;;6.43;3.63;;;20.30;99.90;;;;;;5090045;28;20665;-82
2021/07/04 08:52:27;;;;;;;4.95;3.53;;;20.90;99.90;;;;;;5083269;28;20254;-79
2021/07/04 08:54:54;;;;;;;10.05;3.10;;;21.10;99.90;;;;;;5086118;28;20209;-84
2021/07/04 08:57:21;;;;;;;4.20;2.80;;;21.50;99.90;;;;;;5093551;28;20213;-79
2021/07/04 08:59:49;;;;;;;2.50;2.30;;;21.80;99.90;;;;;;5092410;28;20684;-81
2021/07/04 09:02:29;;;;;;;6.82;3.00;;;21.50;99.90;;;;;;5093012;28;20734;-79
2021/07/04 09:05:02;;;;;;;3.75;3.33;;;21.40;99.90;;;;;;5077253;28;20229;-80
2021/07/04 09:07:33;;;;;;;2.70;2.50;;;21.10;99.90;;;;;;5075038;28;20289;-77
2021/07/04 09:10:02;;;;;;;3.15;2.88;;;20.90;99.90;;;;;;5071323;28;20691;-78
2021/07/04 09:12:38;;;;;;;2.67;2.47;;;21.00;99.90;;;;;;5074131;28;20206;-79
2021/07/04 09:15:10;;;;;;;6.55;2.15;;;21.20;99.90;;;;;;5070251;28;20202;-82
2021/07/04 09:17:39;;;;;;;3.75;1.90;;;21.70;99.90;;;;;;5074601;28;20206;-76
2021/07/04 09:20:08;;;;;;;4.50;2.60;;;22.30;99.90;;;;;;5073327;28;20217;-74
2021/07/04 09:22:39;;;;;;;5.78;2.95;;;22.90;99.90;;;;;;5072308;28;20202;-77
2021/07/04 09:25:15;;;;;;;4.18;2.90;;;22.70;99.90;;;;;;5065894;28;20283;-78
2021/07/04 09:27:47;;;;;;;2.85;2.53;;;22.30;99.90;;;;;;5079529;28;20259;-79
2021/07/04 09:30:16;;;;;;;3.55;3.00;;;22.80;99.90;;;;;;5079441;28;20209;-79
2021/07/04 09:32:48;;;;;;;6.88;2.83;;;23.10;99.90;;;;;;5073392;28;20206;-83
2021/07/04 09:35:20;;;;;;;9.85;3.75;;;22.90;99.90;;;;;;5080857;28;20209;-82
2021/07/04 09:37:51;;;;;;;8.38;3.50;;;22.40;99.90;;;;;;5085304;28;20213;-81
2021/07/04 09:40:22;;;;;;;14.25;4.65;;;22.10;99.90;;;;;;5082043;28;20197;-80
2021/07/04 09:43:03;;;;;;;12.85;3.95;;;22.20;99.90;;;;;;5086616;28;20202;-83
2021/07/04 09:45:42;;;;;;;6.97;3.15;;;22.20;99.90;;;;;;5087146;28;20367;-82
2021/07/04 09:48:10;;;;;;;3.78;2.78;;;22.40;99.90;;;;;;5073009;28;20263;-79
2021/07/04 09:50:40;;;;;;;6.50;2.75;;;22.30;99.90;;;;;;5073385;28;20212;-80
2021/07/04 09:53:08;;;;;;;3.35;2.67;;;22.80;99.90;;;;;;5085988;28;20734;-81
2021/07/04 09:55:36;;;;;;;2.85;2.65;;;23.60;99.90;;;;;;5080325;28;20680;-80
2021/07/04 09:58:05;;;;;;;4.45;2.30;;;23.30;99.90;;;;;;5091221;28;20220;-81
2021/07/04 10:00:34;;;;;;;2.42;1.60;;;22.80;99.90;;;;;;5091881;28;20205;-81
2021/07/04 10:03:21;;;;;;;4.20;1.90;;;22.70;99.90;;;;;;5091439;28;20681;-79
2021/07/04 10:06:03;;;;;;;1.92;1.17;;;23.00;99.90;;;;;;5062556;28;20224;-78
2021/07/04 10:08:33;;;;;;;1.83;1.63;;;28.50;99.90;;;;;;5072023;28;20290;-77
2021/07/04 10:11:04;;;;;;;2.75;1.77;;;27.90;99.90;;;;;;5071739;28;20285;-76
2021/07/04 10:13:32;;;;;;;1.40;1.15;;;27.80;99.90;;;;;;5073501;28;20267;-77
2021/07/04 10:16:00;;;;;;;1.85;1.38;;;27.70;99.90;;;;;;5072592;28;20202;-74
2021/07/04 10:18:27;;;;;;;2.17;1.25;;;32.90;99.90;;;;;;5072895;28;20206;-77
2021/07/04 10:20:55;;;;;;;1.58;1.48;;;34.30;99.90;;;;;;5073483;28;20271;-73
2021/07/04 10:23:24;;;;;;;1.55;1.10;;;33.90;99.90;;;;;;5074311;28;20214;-71
2021/07/04 10:25:55;;;;;;;2.08;1.45;;;35.70;99.90;;;;;;5078427;28;20233;-70
2021/07/04 10:28:27;;;;;;;2.10;1.90;;;36.10;99.90;;;;;;5069692;28;20730;-77
2021/07/04 10:30:54;;;;;;;1.65;1.20;;;34.90;99.90;;;;;;5071904;28;20263;-69
2021/07/04 10:33:24;;;;;;;1.35;1.25;;;36.10;99.90;;;;;;5070492;28;20202;-72
2021/07/04 10:36:03;;;;;;;1.70;1.38;;;32.00;99.90;;;;;;5072530;28;20259;-78
2021/07/04 10:38:46;;;;;;;2.97;1.40;;;31.10;99.90;;;;;;5064442;28;20228;-73
2021/07/04 10:41:17;;;;;;;1.67;1.33;;;28.20;99.90;;;;;;5073797;28;20206;-80
2021/07/04 10:44:00;;;;;;;2.53;1.30;;;26.00;99.90;;;;;;5070207;28;20684;-75
2021/07/04 10:47:05;;;;;;;1.98;1.10;;;24.90;99.90;;;;;;5067817;28;20274;-76
2021/07/04 10:49:40;;;;;;;2.63;1.48;;;24.80;99.90;;;;;;5076697;28;20587;-73
2021/07/04 10:52:11;;;;;;;1.27;1.00;;;24.60;99.90;;;;;;5080987;28;20582;-72
2021/07/04 10:54:47;;;;;;;1.40;1.30;;;24.50;99.90;;;;;;5073924;28;20595;-74
2021/07/04 10:57:19;;;;;;;2.80;1.70;;;24.40;99.90;;;;;;5081478;28;20201;-78
2021/07/04 10:59:51;;;;;;;1.80;1.50;;;24.20;99.90;;;;;;5081379;28;20202;-74
2021/07/04 11:02:38;;;;;;;1.45;1.35;;;24.10;99.90;;;;;;5080199;28;20246;-74
2021/07/04 11:05:07;;;;;;;2.38;1.30;;;24.30;99.90;;;;;;5086744;28;20201;-75
2021/07/04 11:08:10;;;;;;;2.42;2.22;;;24.80;99.90;;;;;;5084395;28;20206;-73
2021/07/04 11:10:39;;;;;;;1.58;1.40;;;25.10;99.90;;;;;;5078278;28;20202;-74
2021/07/04 11:13:28;;;;;;;1.92;1.40;;;25.20;99.90;;;;;;5069295;28;20267;-73
2021/07/04 11:16:21;;;;;;;1.17;1.08;;;25.40;99.90;;;;;;5068126;28;20673;-74
2021/07/04 11:18:50;;;;;;;1.63;1.08;;;25.90;99.90;;;;;;5066168;28;20206;-73
2021/07/04 11:21:19;;;;;;;0.93;0.82;;;25.80;99.90;;;;;;5070085;28;20237;-74
2021/07/04 11:23:47;;;;;;;2.65;1.17;;;26.00;99.90;;;;;;5069575;28;20198;-73
2021/07/04 11:26:19;;;;;;;1.55;1.40;;;26.20;99.90;;;;;;5084036;28;20634;-75
2021/07/04 11:28:51;;;;;;;1.75;1.65;;;26.30;99.90;;;;;;5072692;28;20578;-73
2021/07/04 11:31:43;;;;;;;2.55;1.85;;;26.70;99.90;;;;;;5084443;28;20275;-74
2021/07/04 11:34:11;;;;;;;1.35;1.20;;;26.80;99.90;;;;;;5081252;28;20217;-76
2021/07/04 11:36:38;;;;;;;2.25;1.60;;;26.70;99.90;;;;;;5070699;28;20575;-74
2021/07/04 11:39:09;;;;;;;2.75;1.48;;;26.10;99.90;;;;;;5070185;28;20214;-75
2021/07/04 11:41:39;;;;;;;3.17;1.33;;;25.60;99.90;;;;;;5089898;28;20280;-76
2021/07/04 11:44:10;;;;;;;1.58;1.30;;;25.70;99.90;;;;;;5090794;28;20207;-75
2021/07/04 11:46:40;;;;;;;1.67;0.98;;;25.70;99.90;;;;;;5070655;28;20281;-73
2021/07/04 11:49:08;;;;;;;1.27;0.90;;;25.90;99.90;;;;;;5070796;28;20198;-72
2021/07/04 11:51:44;;;;;;;1.13;0.80;;;25.60;99.90;;;;;;5074779;28;20255;-76
2021/07/04 11:54:17;;;;;;;2.83;0.82;;;25.90;99.90;;;;;;5090409;28;20231;-75
2021/07/04 11:56:47;;;;;;;1.00;0.90;;;25.70;99.90;;;;;;5081990;28;20266;-75
2021/07/04 11:59:21;;;;;;;1.23;1.13;;;25.90;99.90;;;;;;5072185;28;20268;-75
2021/07/04 12:01:51;;;;;;;1.15;1.00;;;26.20;99.90;;;;;;5068656;28;20202;-76
2021/07/04 12:04:20;;;;;;;0.68;0.68;;;26.50;99.90;;;;;;5069839;28;20218;-73
2021/07/04 12:06:55;;;;;;;2.13;1.35;;;26.80;99.90;;;;;;5068378;28;20275;-75
2021/07/04 12:09:34;;;;;;;1.23;1.13;;;26.90;99.90;;;;;;5069454;28;20206;-76
2021/07/04 12:12:01;;;;;;;1.23;1.13;;;26.50;99.90;;;;;;5069598;28;20263;-76
2021/07/04 12:14:35;;;;;;;1.23;1.10;;;26.90;99.90;;;;;;5073686;28;20202;-75
2021/07/04 12:17:23;;;;;;;3.03;0.80;;;27.10;99.90;;;;;;5072472;28;20205;-76
2021/07/04 12:19:57;;;;;;;1.83;0.82;;;27.00;99.90;;;;;;5065033;28;20686;-74
2021/07/04 12:22:26;;;;;;;1.30;1.08;;;25.90;99.90;;;;;;5073177;28;20202;-77
2021/07/04 12:24:54;;;;;;;1.15;0.88;;;25.20;99.90;;;;;;5074604;28;20213;-76
2021/07/04 12:27:34;;;;;;;2.17;0.90;;;25.10;99.90;;;;;;5085228;28;20720;-78
2021/07/04 12:30:12;;;;;;;1.45;0.85;;;25.30;99.90;;;;;;5085179;28;20198;-77
2021/07/04 12:32:42;;;;;;;1.48;0.88;;;25.60;99.90;;;;;;5073748;28;20198;-76
2021/07/04 12:35:18;;;;;;;0.95;0.90;;;25.50;99.90;;;;;;5072574;28;20214;-79
2021/07/04 12:37:46;;;;;;;1.15;1.00;;;25.70;99.90;;;;;;5071933;28;20297;-73
2021/07/04 12:40:15;;;;;;;0.95;0.77;;;26.40;99.90;;;;;;5073082;28;20206;-75
2021/07/04 12:42:42;;;;;;;1.65;1.08;;;26.50;99.90;;;;;;5072656;28;20206;-79
2021/07/04 12:45:15;;;;;;;2.67;1.15;;;26.00;99.90;;;;;;5073589;28;20283;-75
2021/07/04 12:47:43;;;;;;;1.70;1.33;;;26.00;99.90;;;;;;5070209;28;20226;-75
2021/07/04 12:50:13;;;;;;;1.38;1.20;;;26.10;99.90;;;;;;5072721;28;20255;-76
2021/07/04 12:52:54;;;;;;;1.75;1.00;;;26.40;99.90;;;;;;5073059;28;20202;-77
2021/07/04 12:55:48;;;;;;;1.35;1.13;;;26.20;99.90;;;;;;5065438;28;20260;-76
2021/07/04 12:58:24;;;;;;;1.40;1.30;;;25.90;99.90;;;;;;5072616;28;20631;-77
2021/07/04 13:00:53;;;;;;;4.25;1.23;;;26.10;99.90;;;;;;5072472;28;20256;-77